Terminal Aerodrome Forecast
Issued by NWS Jackson, MS

Home | Current Version | Previous Version | Text Only | Print | Product List | Glossary On
Versions: 1 2 3 4 5 6 7 8 9 10 11 12 13
000
FTUS44 KJAN 291100
TAFGLH
TAF
KGLH 291137Z 2912/3012 VRB03KT P6SM SCT250
     FM291430 21006KT P6SM SCT040 SCT250
     FM292000 18008KT P6SM VCTS BKN050CB BKN250
     FM300100 16003KT P6SM OVC200
     FM301000 20005KT P6SM VCSH BKN100=

USA.gov is the U.S. government's official web portal to all federal, state and local government web resources and services.